createdAt,value
2022-12-12T00:00:39.131Z,-4.09
2022-12-12T00:01:45.029Z,-4.12
2022-12-12T00:02:46.058Z,-4.02
2022-12-12T00:03:40.184Z,-4.16
2022-12-12T00:04:39.029Z,-4.12
2022-12-12T00:05:38.969Z,-4.13
2022-12-12T00:06:38.970Z,-4.12
2022-12-12T00:07:39.001Z,-4.15
2022-12-12T00:08:38.961Z,-4.09
2022-12-12T00:09:39.025Z,-4.15
2022-12-12T00:10:38.954Z,-4.15
2022-12-12T00:11:39.466Z,-4.26
2022-12-12T00:12:38.893Z,-4.20
2022-12-12T00:13:38.880Z,-4.28
2022-12-12T00:14:38.897Z,-4.27
2022-12-12T00:15:38.938Z,-4.23
2022-12-12T00:16:38.847Z,-4.22
2022-12-12T00:17:38.852Z,-4.31
2022-12-12T00:18:38.893Z,-4.36
2022-12-12T00:19:38.854Z,-4.34
2022-12-12T00:20:38.833Z,-4.33
2022-12-12T00:21:38.864Z,-4.37
2022-12-12T00:22:38.792Z,-4.31
2022-12-12T00:23:38.855Z,-4.36
2022-12-12T00:24:38.860Z,-4.34
2022-12-12T00:25:38.833Z,-4.30
2022-12-12T00:26:38.852Z,-4.26
2022-12-12T00:27:38.774Z,-4.22
2022-12-12T00:28:38.737Z,-4.20
2022-12-12T00:29:38.778Z,-4.23
2022-12-12T00:30:38.704Z,-4.31
2022-12-12T00:31:38.729Z,-4.20
2022-12-12T00:32:38.715Z,-4.23
2022-12-12T00:33:38.685Z,-4.26
2022-12-12T00:34:38.755Z,-4.19
2022-12-12T00:35:38.693Z,-4.23
2022-12-12T00:36:38.643Z,-4.23
2022-12-12T00:37:38.676Z,-4.22
2022-12-12T00:38:38.623Z,-4.30
2022-12-12T00:39:38.635Z,-4.27
2022-12-12T00:40:38.668Z,-4.15
2022-12-12T00:41:38.600Z,-4.20
2022-12-12T00:42:38.587Z,-4.34
2022-12-12T00:43:38.590Z,-4.30
2022-12-12T00:44:38.587Z,-4.34
2022-12-12T00:45:38.550Z,-4.30
2022-12-12T00:46:38.666Z,-4.30
2022-12-12T00:47:38.611Z,-4.37
2022-12-12T00:48:38.530Z,-4.34
2022-12-12T00:49:38.648Z,-4.36
2022-12-12T00:50:38.555Z,-4.33
2022-12-12T00:51:38.530Z,-4.37
2022-12-12T00:52:38.489Z,-4.28
2022-12-12T00:53:38.464Z,-4.17
2022-12-12T00:54:38.493Z,-4.15
2022-12-12T00:55:38.455Z,-4.27
2022-12-12T00:56:38.443Z,-4.23
2022-12-12T00:57:38.450Z,-4.41
2022-12-12T00:58:38.415Z,-4.31
2022-12-12T00:59:38.489Z,-4.36
2022-12-12T01:00:38.400Z,-4.36
2022-12-12T01:01:38.485Z,-4.46
2022-12-12T01:02:38.405Z,-4.55
2022-12-12T01:03:38.543Z,-4.48
2022-12-12T01:04:38.426Z,-4.46
2022-12-12T01:05:38.367Z,-4.51
2022-12-12T01:06:38.361Z,-4.49
2022-12-12T01:07:38.401Z,-4.45
2022-12-12T01:08:38.317Z,-4.46
2022-12-12T01:09:38.331Z,-4.49
2022-12-12T01:10:38.287Z,-4.56
2022-12-12T01:11:38.418Z,-4.55
2022-12-12T01:12:38.265Z,-4.59
2022-12-12T01:13:38.258Z,-4.58
2022-12-12T01:14:38.294Z,-4.63
2022-12-12T01:15:38.257Z,-4.59
2022-12-12T01:16:38.299Z,-4.72
2022-12-12T01:17:38.272Z,-4.69
2022-12-12T01:18:38.208Z,-4.59
2022-12-12T01:19:38.244Z,-4.67
2022-12-12T01:20:38.230Z,-4.67
2022-12-12T01:21:38.202Z,-4.69
2022-12-12T01:22:38.172Z,-4.63
2022-12-12T01:23:38.219Z,-4.59
2022-12-12T01:24:38.158Z,-4.67
2022-12-12T01:25:38.174Z,-4.66
2022-12-12T01:26:38.132Z,-4.72
2022-12-12T01:27:38.137Z,-4.67
2022-12-12T01:28:38.117Z,-4.73
2022-12-12T01:29:38.111Z,-4.66
2022-12-12T01:30:38.145Z,-4.69
2022-12-12T01:31:38.147Z,-4.74
2022-12-12T01:32:38.105Z,-4.74
2022-12-12T01:33:38.064Z,-4.79
2022-12-12T01:34:38.043Z,-4.76
2022-12-12T01:35:38.049Z,-4.73
2022-12-12T01:36:38.082Z,-4.72
2022-12-12T01:37:38.028Z,-4.81
2022-12-12T01:38:38.089Z,-4.87
2022-12-12T01:39:38.059Z,-4.90
2022-12-12T01:40:38.029Z,-5.03
2022-12-12T01:41:37.984Z,-4.88
2022-12-12T01:42:37.960Z,-4.95
2022-12-12T01:43:37.951Z,-5.01
2022-12-12T01:44:37.957Z,-4.95
2022-12-12T01:45:38.044Z,-4.97
2022-12-12T01:46:38.256Z,-5.08
2022-12-12T01:47:37.923Z,-5.16
2022-12-12T01:48:37.919Z,-5.08
2022-12-12T01:49:37.893Z,-5.09
2022-12-12T01:50:37.915Z,-5.09
2022-12-12T01:51:37.897Z,-5.12
2022-12-12T01:52:37.869Z,-5.11
2022-12-12T01:53:37.898Z,-5.09
2022-12-12T01:54:37.935Z,-5.08
2022-12-12T01:55:37.873Z,-5.11
2022-12-12T01:56:37.867Z,-5.08
2022-12-12T01:57:37.839Z,-5.09
2022-12-12T01:58:37.800Z,-5.08
2022-12-12T01:59:37.828Z,-5.06
2022-12-12T02:00:37.896Z,-5.09
2022-12-12T02:01:37.855Z,-5.16
2022-12-12T02:02:37.934Z,-5.05
2022-12-12T02:03:37.776Z,-5.12
2022-12-12T02:04:37.737Z,-5.12
2022-12-12T02:05:37.769Z,-5.11
2022-12-12T02:06:37.730Z,-5.09
2022-12-12T02:07:37.783Z,-5.08
2022-12-12T02:08:37.859Z,-5.16
2022-12-12T02:09:37.737Z,-5.16
2022-12-12T02:10:37.716Z,-5.21
2022-12-12T02:11:37.694Z,-5.25
2022-12-12T02:12:37.653Z,-5.23
2022-12-12T02:13:37.646Z,-5.33
2022-12-12T02:14:37.680Z,-5.38
2022-12-12T02:15:37.643Z,-5.34
2022-12-12T02:16:37.698Z,-5.34
2022-12-12T02:17:37.607Z,-5.30
2022-12-12T02:18:37.692Z,-5.35
2022-12-12T02:19:37.715Z,-5.39
2022-12-12T02:20:37.668Z,-5.28
2022-12-12T02:21:37.578Z,-5.27
2022-12-12T02:22:37.554Z,-5.33
2022-12-12T02:23:37.592Z,-5.30
2022-12-12T02:24:37.557Z,-5.27
2022-12-12T02:25:37.619Z,-5.28
2022-12-12T02:26:37.686Z,-5.20
2022-12-12T02:27:37.523Z,-5.16
2022-12-12T02:28:37.510Z,-5.17
2022-12-12T02:29:37.532Z,-5.24
2022-12-12T02:30:37.527Z,-5.21
2022-12-12T02:31:37.754Z,-5.21
2022-12-12T02:32:37.487Z,-5.24
2022-12-12T02:33:37.450Z,-5.24
2022-12-12T02:34:37.486Z,-5.24
2022-12-12T02:35:37.438Z,-5.20
2022-12-12T02:36:37.462Z,-5.35
2022-12-12T02:37:37.428Z,-5.34
2022-12-12T02:38:37.512Z,-5.30
2022-12-12T02:39:37.422Z,-5.42
2022-12-12T02:40:37.436Z,-5.34
2022-12-12T02:41:37.360Z,-5.41
2022-12-12T02:42:37.479Z,-5.35
2022-12-12T02:43:37.361Z,-5.43
2022-12-12T02:44:37.335Z,-5.38
2022-12-12T02:45:37.336Z,-5.51
2022-12-12T02:46:37.389Z,-5.43
2022-12-12T02:47:37.363Z,-5.46
2022-12-12T02:48:37.331Z,-5.46
2022-12-12T02:49:37.278Z,-5.38
2022-12-12T02:50:37.315Z,-5.38
2022-12-12T02:51:37.262Z,-5.51
2022-12-12T02:52:37.284Z,-5.48
2022-12-12T02:53:37.286Z,-5.52
2022-12-12T02:54:37.225Z,-5.48
2022-12-12T02:55:37.239Z,-5.41
2022-12-12T02:56:37.212Z,-5.49
2022-12-12T02:57:37.212Z,-5.51
2022-12-12T02:58:37.189Z,-5.51
2022-12-12T02:59:37.245Z,-5.52
2022-12-12T03:00:37.398Z,-5.53
2022-12-12T03:01:37.265Z,-5.46
2022-12-12T03:02:37.163Z,-5.34
2022-12-12T03:03:37.212Z,-5.34
2022-12-12T03:04:37.122Z,-5.39
2022-12-12T03:05:37.132Z,-5.43
2022-12-12T03:06:40.992Z,-5.41
2022-12-12T03:07:37.145Z,-5.39
2022-12-12T03:08:37.083Z,-5.41
2022-12-12T03:09:37.240Z,-5.39
2022-12-12T03:10:37.078Z,-5.45
2022-12-12T03:11:37.048Z,-5.45
2022-12-12T03:12:37.045Z,-5.49
2022-12-12T03:13:37.034Z,-5.48
2022-12-12T03:14:37.038Z,-5.46
2022-12-12T03:15:37.071Z,-5.45
2022-12-12T03:16:37.243Z,-5.49
2022-12-12T03:17:37.024Z,-5.51
2022-12-12T03:18:37.059Z,-5.45
2022-12-12T03:19:36.972Z,-5.45
2022-12-12T03:20:36.997Z,-5.45
2022-12-12T03:21:36.961Z,-5.49
2022-12-12T03:22:36.936Z,-5.48
2022-12-12T03:23:36.922Z,-5.45
2022-12-12T03:24:36.963Z,-5.49
2022-12-12T03:25:36.962Z,-5.49
2022-12-12T03:26:36.900Z,-5.49
2022-12-12T03:27:36.904Z,-5.46
2022-12-12T03:28:36.885Z,-5.46
2022-12-12T03:29:36.861Z,-5.52
2022-12-12T03:30:36.937Z,-5.43
2022-12-12T03:31:36.957Z,-5.49
2022-12-12T03:32:37.239Z,-5.46
2022-12-12T03:33:36.823Z,-5.49
2022-12-12T03:34:36.821Z,-5.53
2022-12-12T03:35:36.846Z,-5.51
2022-12-12T03:36:36.810Z,-5.45
2022-12-12T03:37:36.786Z,-5.51
2022-12-12T03:38:36.790Z,-5.45
2022-12-12T03:39:36.845Z,-5.43
2022-12-12T03:40:36.807Z,-5.35
2022-12-12T03:41:36.744Z,-5.38
2022-12-12T03:42:36.729Z,-5.34
2022-12-12T03:43:36.752Z,-5.48
2022-12-12T03:44:41.272Z,-5.43
2022-12-12T03:45:37.769Z,-5.34
2022-12-12T03:46:36.729Z,-5.35
2022-12-12T03:47:36.718Z,-5.27
2022-12-12T03:48:36.693Z,-5.25
2022-12-12T03:49:36.683Z,-5.20
2022-12-12T03:50:36.668Z,-5.21
2022-12-12T03:51:36.677Z,-5.17
2022-12-12T03:52:36.639Z,-5.16
2022-12-12T03:53:36.648Z,-5.09
2022-12-12T03:54:36.681Z,-5.20
2022-12-12T03:55:36.642Z,-5.23
2022-12-12T03:56:36.642Z,-5.12
2022-12-12T03:57:36.575Z,-5.20
2022-12-12T03:58:36.668Z,-5.17
2022-12-12T03:59:36.559Z,-5.13
2022-12-12T04:00:36.563Z,-5.09
2022-12-12T04:01:36.598Z,-5.17
2022-12-12T04:02:36.675Z,-5.16
2022-12-12T04:03:36.688Z,-5.09
2022-12-12T04:04:36.593Z,-5.09
2022-12-12T04:05:36.530Z,-5.09
2022-12-12T04:06:36.514Z,-5.09
2022-12-12T04:07:36.477Z,-5.11
2022-12-12T04:08:36.479Z,-5.06
2022-12-12T04:09:36.566Z,-5.09
2022-12-12T04:10:36.446Z,-5.05
2022-12-12T04:11:36.457Z,-5.08
2022-12-12T04:12:36.446Z,-5.09
2022-12-12T04:13:36.420Z,-5.09
2022-12-12T04:14:36.401Z,-5.11
2022-12-12T04:15:36.552Z,-5.02
2022-12-12T04:16:36.498Z,-5.12
2022-12-12T04:17:36.517Z,-5.11
2022-12-12T04:18:36.372Z,-4.99
2022-12-12T04:19:36.454Z,-4.94
2022-12-12T04:20:36.365Z,-5.08
2022-12-12T04:21:36.326Z,-5.16
2022-12-12T04:22:36.374Z,-5.11
2022-12-12T04:23:36.346Z,-5.09
2022-12-12T04:24:36.326Z,-5.09
2022-12-12T04:25:36.309Z,-5.09
2022-12-12T04:26:36.434Z,-5.06
2022-12-12T04:27:36.273Z,-5.11
2022-12-12T04:28:36.259Z,-5.08
2022-12-12T04:29:36.312Z,-5.08
2022-12-12T04:30:36.282Z,-4.99
2022-12-12T04:31:36.276Z,-5.13
2022-12-12T04:32:36.217Z,-5.11
2022-12-12T04:33:36.259Z,-5.08
2022-12-12T04:34:36.201Z,-5.13
2022-12-12T04:35:36.241Z,-5.11
2022-12-12T04:36:36.237Z,-4.97
2022-12-12T04:37:36.192Z,-5.02
2022-12-12T04:38:36.201Z,-4.95
2022-12-12T04:39:36.192Z,-5.11
2022-12-12T04:40:36.142Z,-4.95
2022-12-12T04:41:36.127Z,-5.05
2022-12-12T04:42:36.128Z,-5.03
2022-12-12T04:43:36.117Z,-5.02
2022-12-12T04:44:36.100Z,-5.03
2022-12-12T04:45:36.219Z,-5.01
2022-12-12T04:46:36.165Z,-4.87
2022-12-12T04:47:36.082Z,-4.94
2022-12-12T04:48:38.568Z,-5.06
2022-12-12T04:49:36.077Z,-4.97
2022-12-12T04:50:36.132Z,-5.06
2022-12-12T04:51:36.151Z,-5.09
2022-12-12T04:52:36.035Z,-5.02
2022-12-12T04:53:36.069Z,-5.09
2022-12-12T04:54:36.052Z,-5.11
2022-12-12T04:55:36.027Z,-5.09
2022-12-12T04:56:36.024Z,-5.05
2022-12-12T04:57:36.021Z,-4.95
2022-12-12T04:58:35.962Z,-5.05
2022-12-12T04:59:35.970Z,-5.09
2022-12-12T05:00:36.184Z,-5.06
2022-12-12T05:01:35.977Z,-5.11
2022-12-12T05:02:35.995Z,-5.16
2022-12-12T05:03:35.968Z,-5.11
2022-12-12T05:04:35.953Z,-5.23
2022-12-12T05:05:35.912Z,-5.20
2022-12-12T05:06:35.869Z,-5.12
2022-12-12T05:07:39.811Z,-5.20
2022-12-12T05:08:35.864Z,-5.12
2022-12-12T05:09:35.849Z,-5.20
2022-12-12T05:10:35.895Z,-5.16
2022-12-12T05:11:35.876Z,-5.11
2022-12-12T05:12:35.837Z,-5.17
2022-12-12T05:13:35.842Z,-5.09
2022-12-12T05:14:35.817Z,-5.09
2022-12-12T05:15:39.197Z,-5.16
2022-12-12T05:16:36.822Z,-5.11
2022-12-12T05:17:35.768Z,-5.06
2022-12-12T05:18:35.756Z,-5.09
2022-12-12T05:19:35.796Z,-5.08
2022-12-12T05:20:35.800Z,-5.08
2022-12-12T05:21:35.760Z,-5.11
2022-12-12T05:22:35.730Z,-5.23
2022-12-12T05:23:35.715Z,-5.20
2022-12-12T05:24:35.687Z,-5.27
2022-12-12T05:25:35.717Z,-5.25
2022-12-12T05:26:35.747Z,-5.25
2022-12-12T05:27:35.650Z,-5.27
2022-12-12T05:28:35.649Z,-5.24
2022-12-12T05:29:35.675Z,-5.21
2022-12-12T05:30:35.724Z,-5.17
2022-12-12T05:31:35.655Z,-5.16
2022-12-12T05:32:35.701Z,-5.17
2022-12-12T05:33:35.664Z,-5.24
2022-12-12T05:34:35.676Z,-5.16
2022-12-12T05:35:35.608Z,-5.17
2022-12-12T05:36:35.567Z,-5.17
2022-12-12T05:37:35.613Z,-5.12
2022-12-12T05:38:35.551Z,-5.11
2022-12-12T05:39:35.562Z,-5.12
2022-12-12T05:40:35.555Z,-5.17
2022-12-12T05:41:35.531Z,-5.20
2022-12-12T05:42:35.559Z,-5.16
2022-12-12T05:43:35.522Z,-5.25
2022-12-12T05:44:35.513Z,-5.20
2022-12-12T05:45:35.495Z,-5.16
2022-12-12T05:46:35.462Z,-5.11
2022-12-12T05:47:35.460Z,-5.09
2022-12-12T05:48:35.531Z,-5.08
2022-12-12T05:49:35.428Z,-5.13
2022-12-12T05:50:35.448Z,-5.12
2022-12-12T05:51:35.410Z,-5.11
2022-12-12T05:52:35.424Z,-5.05
2022-12-12T05:53:42.532Z,-5.09
2022-12-12T05:54:36.404Z,-5.13
2022-12-12T05:55:35.518Z,-5.11
2022-12-12T05:56:35.410Z,-5.20
2022-12-12T05:57:35.378Z,-5.24
2022-12-12T05:58:35.482Z,-5.23
2022-12-12T05:59:35.331Z,-5.27
2022-12-12T06:00:35.338Z,-5.23
2022-12-12T06:01:35.427Z,-5.28
2022-12-12T06:02:35.372Z,-5.25
2022-12-12T06:03:35.361Z,-5.23
2022-12-12T06:04:35.271Z,-5.20
2022-12-12T06:05:35.438Z,-5.12
2022-12-12T06:06:35.283Z,-5.13
2022-12-12T06:07:35.284Z,-5.13
2022-12-12T06:08:35.346Z,-5.12
2022-12-12T06:09:35.229Z,-5.13
2022-12-12T06:10:35.343Z,-5.13
2022-12-12T06:11:35.253Z,-5.08
2022-12-12T06:12:35.269Z,-5.09
2022-12-12T06:13:35.200Z,-5.20
2022-12-12T06:14:35.224Z,-5.16
2022-12-12T06:15:35.263Z,-5.11
2022-12-12T06:16:35.183Z,-5.09
2022-12-12T06:17:35.246Z,-5.13
2022-12-12T06:18:35.196Z,-5.09
2022-12-12T06:19:35.118Z,-5.11
2022-12-12T06:20:35.140Z,-5.06
2022-12-12T06:21:35.276Z,-5.09
2022-12-12T06:22:35.086Z,-5.03
2022-12-12T06:23:35.086Z,-5.08
2022-12-12T06:24:35.076Z,-5.09
2022-12-12T06:25:35.111Z,-5.11
2022-12-12T06:26:35.043Z,-5.16
2022-12-12T06:27:35.070Z,-5.09
2022-12-12T06:28:35.059Z,-5.13
2022-12-12T06:29:35.094Z,-5.20
2022-12-12T06:30:35.083Z,-5.23
2022-12-12T06:31:35.126Z,-5.21
2022-12-12T06:32:35.211Z,-5.21
2022-12-12T06:33:35.050Z,-5.21
2022-12-12T06:34:35.056Z,-5.20
2022-12-12T06:35:35.085Z,-5.12
2022-12-12T06:36:35.269Z,-5.11
2022-12-12T06:37:34.964Z,-5.13
2022-12-12T06:38:35.027Z,-5.12
2022-12-12T06:39:35.693Z,-5.06
2022-12-12T06:40:34.912Z,-5.09
2022-12-12T06:41:35.030Z,-5.12
2022-12-12T06:42:34.907Z,-5.06
2022-12-12T06:43:34.876Z,-5.05
2022-12-12T06:44:34.857Z,-5.11
2022-12-12T06:45:34.874Z,-5.09
2022-12-12T06:46:34.963Z,-5.02
2022-12-12T06:47:34.881Z,-4.99
2022-12-12T06:48:34.870Z,-5.03
2022-12-12T06:49:34.850Z,-5.03
2022-12-12T06:50:34.862Z,-5.03
2022-12-12T06:51:34.826Z,-4.91
2022-12-12T06:52:34.915Z,-4.85
2022-12-12T06:53:34.762Z,-4.93
2022-12-12T06:54:34.758Z,-4.93
2022-12-12T06:55:34.926Z,-4.87
2022-12-12T06:56:34.745Z,-4.81
2022-12-12T06:57:34.809Z,-4.83
2022-12-12T06:58:34.886Z,-4.90
2022-12-12T06:59:34.718Z,-4.90
2022-12-12T07:00:34.693Z,-4.81
2022-12-12T07:01:34.776Z,-4.73
2022-12-12T07:02:34.752Z,-4.95
2022-12-12T07:03:34.764Z,-4.84
2022-12-12T07:04:34.668Z,-4.90
2022-12-12T07:05:34.773Z,-4.81
2022-12-12T07:06:34.659Z,-4.79
2022-12-12T07:07:34.633Z,-4.84
2022-12-12T07:08:34.684Z,-4.83
2022-12-12T07:09:34.626Z,-4.81
2022-12-12T07:10:34.600Z,-4.99
2022-12-12T07:11:34.587Z,-4.99
2022-12-12T07:12:34.608Z,-4.87
2022-12-12T07:13:34.557Z,-4.85
2022-12-12T07:14:34.560Z,-4.85
2022-12-12T07:15:34.716Z,-4.88
2022-12-12T07:16:34.549Z,-4.91
2022-12-12T07:17:34.523Z,-4.93
2022-12-12T07:18:34.550Z,-4.91
2022-12-12T07:19:34.547Z,-4.85
2022-12-12T07:20:34.517Z,-4.93
2022-12-12T07:21:34.472Z,-4.91
2022-12-12T07:22:34.619Z,-4.85
2022-12-12T07:23:34.464Z,-4.85
2022-12-12T07:24:34.445Z,-4.88
2022-12-12T07:25:34.800Z,-4.81
2022-12-12T07:26:34.449Z,-4.84
2022-12-12T07:27:34.484Z,-4.85
2022-12-12T07:28:34.402Z,-4.79
2022-12-12T07:29:34.420Z,-4.85
2022-12-12T07:30:34.424Z,-4.85
2022-12-12T07:31:34.467Z,-4.83
2022-12-12T07:32:34.422Z,-4.81
2022-12-12T07:33:43.110Z,-4.87
2022-12-12T07:34:35.393Z,-4.79
2022-12-12T07:35:34.377Z,-4.85
2022-12-12T07:36:34.335Z,-4.81
2022-12-12T07:37:34.397Z,-4.79
2022-12-12T07:38:34.333Z,-4.81
2022-12-12T07:39:34.373Z,-4.81
2022-12-12T07:40:34.553Z,-4.66
2022-12-12T07:41:34.277Z,-4.87
2022-12-12T07:42:34.279Z,-4.70
2022-12-12T07:43:37.229Z,-4.79
2022-12-12T07:44:35.352Z,-4.73
2022-12-12T07:45:34.264Z,-4.73
2022-12-12T07:46:34.277Z,-4.73
2022-12-12T07:47:34.225Z,-4.83
2022-12-12T07:48:34.277Z,-4.84
2022-12-12T07:49:34.215Z,-4.85
2022-12-12T07:50:34.250Z,-4.72
2022-12-12T07:51:34.180Z,-4.70
2022-12-12T07:52:34.162Z,-4.65
2022-12-12T07:53:34.203Z,-4.69
2022-12-12T07:54:34.180Z,-4.59
2022-12-12T07:55:34.260Z,-4.66
2022-12-12T07:56:34.112Z,-4.59
2022-12-12T07:57:34.109Z,-4.63
2022-12-12T07:58:34.098Z,-4.63
2022-12-12T07:59:34.083Z,-4.52
2022-12-12T08:00:34.147Z,-4.56
2022-12-12T08:01:34.113Z,-4.62
2022-12-12T08:02:34.092Z,-4.59
2022-12-12T08:03:34.085Z,-4.56
2022-12-12T08:04:34.130Z,-4.51
2022-12-12T08:05:34.095Z,-4.45
2022-12-12T08:06:34.077Z,-4.49
2022-12-12T08:07:34.003Z,-4.51
2022-12-12T08:08:34.086Z,-4.49
2022-12-12T08:09:33.991Z,-4.49
2022-12-12T08:10:34.080Z,-4.45
2022-12-12T08:11:33.964Z,-4.44
2022-12-12T08:12:33.951Z,-4.52
2022-12-12T08:13:33.950Z,-4.36
2022-12-12T08:14:33.994Z,-4.37
2022-12-12T08:15:33.979Z,-4.40
2022-12-12T08:16:34.037Z,-4.48
2022-12-12T08:17:33.932Z,-4.45
2022-12-12T08:18:33.956Z,-4.48
2022-12-12T08:19:33.947Z,-4.38
2022-12-12T08:20:33.886Z,-4.38
2022-12-12T08:21:33.914Z,-4.31
2022-12-12T08:22:33.967Z,-4.38
2022-12-12T08:23:33.856Z,-4.37
2022-12-12T08:24:33.880Z,-4.31
2022-12-12T08:25:33.856Z,-4.28
2022-12-12T08:26:33.818Z,-4.22
2022-12-12T08:27:33.806Z,-4.23
2022-12-12T08:28:33.795Z,-4.23
2022-12-12T08:29:33.803Z,-4.22
2022-12-12T08:30:33.844Z,-4.23
2022-12-12T08:31:33.845Z,-4.17
2022-12-12T08:32:33.752Z,-4.15
2022-12-12T08:33:33.789Z,-4.07
2022-12-12T08:34:33.738Z,-4.04
2022-12-12T08:35:33.780Z,-4.02
2022-12-12T08:36:33.729Z,-4.01
2022-12-12T08:37:33.737Z,-4.02
2022-12-12T08:38:33.712Z,-3.97
2022-12-12T08:39:33.678Z,-4.04
2022-12-12T08:40:33.683Z,-4.04
2022-12-12T08:41:33.669Z,-4.02
2022-12-12T08:42:33.659Z,-3.97
2022-12-12T08:43:33.667Z,-3.98
2022-12-12T08:44:33.670Z,-4.01
2022-12-12T08:45:33.657Z,-4.02
2022-12-12T08:46:33.729Z,-4.01
2022-12-12T08:47:33.658Z,-3.99
2022-12-12T08:48:33.634Z,-3.98
2022-12-12T08:49:33.596Z,-3.98
2022-12-12T08:50:33.613Z,-3.94
2022-12-12T08:51:33.570Z,-4.07
2022-12-12T08:52:33.567Z,-4.01
2022-12-12T08:53:33.603Z,-4.01
2022-12-12T08:54:33.666Z,-4.04
2022-12-12T08:55:33.528Z,-4.04
2022-12-12T08:56:33.514Z,-3.91
2022-12-12T08:57:33.582Z,-3.97
2022-12-12T08:58:33.479Z,-3.95
2022-12-12T08:59:33.472Z,-3.84
2022-12-12T09:00:33.504Z,-3.83
2022-12-12T09:01:33.518Z,-3.80
2022-12-12T09:02:33.594Z,-3.76
2022-12-12T09:03:33.428Z,-3.74
2022-12-12T09:04:33.410Z,-3.69
2022-12-12T09:05:33.505Z,-3.76
2022-12-12T09:06:33.473Z,-3.79
2022-12-12T09:07:33.445Z,-3.72
2022-12-12T09:08:33.539Z,-3.72
2022-12-12T09:09:33.406Z,-3.77
2022-12-12T09:10:33.406Z,-3.76
2022-12-12T09:11:33.393Z,-3.72
2022-12-12T09:12:36.972Z,-3.58
2022-12-12T09:13:34.316Z,-3.54
2022-12-12T09:14:33.326Z,-3.58
2022-12-12T09:15:33.330Z,-3.54
2022-12-12T09:16:33.367Z,-3.54
2022-12-12T09:17:33.319Z,-3.58
2022-12-12T09:18:33.322Z,-3.52
2022-12-12T09:19:33.280Z,-3.58
2022-12-12T09:20:33.288Z,-3.40
2022-12-12T09:21:33.262Z,-3.37
2022-12-12T09:22:33.256Z,-3.40
2022-12-12T09:23:33.228Z,-3.36
2022-12-12T09:24:33.286Z,-3.37
2022-12-12T09:25:33.268Z,-3.34
2022-12-12T09:26:33.187Z,-3.34
2022-12-12T09:27:33.233Z,-3.34
2022-12-12T09:28:33.237Z,-3.37
2022-12-12T09:29:33.260Z,-3.33
2022-12-12T09:30:33.159Z,-3.33
2022-12-12T09:31:33.221Z,-3.41
2022-12-12T09:32:33.189Z,-3.36
2022-12-12T09:33:33.114Z,-3.21
2022-12-12T09:34:33.104Z,-3.12
2022-12-12T09:35:33.112Z,-3.10
2022-12-12T09:36:33.081Z,-3.22
2022-12-12T09:37:33.102Z,-3.33
2022-12-12T09:38:33.086Z,-3.25
2022-12-12T09:39:33.132Z,-3.39
2022-12-12T09:40:33.108Z,-3.26
2022-12-12T09:41:33.084Z,-3.33
2022-12-12T09:42:33.141Z,-3.25
2022-12-12T09:43:33.064Z,-3.34
2022-12-12T09:44:33.029Z,-3.30
2022-12-12T09:45:33.051Z,-3.31
2022-12-12T09:46:33.001Z,-3.34
2022-12-12T09:47:32.968Z,-3.39
2022-12-12T09:48:32.998Z,-3.40
2022-12-12T09:49:34.333Z,-3.28
2022-12-12T09:50:32.973Z,-3.08
2022-12-12T09:51:32.931Z,-3.07
2022-12-12T09:52:32.968Z,-3.15
2022-12-12T09:53:32.943Z,-3.12
2022-12-12T09:54:32.927Z,-3.01
2022-12-12T09:55:33.022Z,-3.08
2022-12-12T09:56:32.989Z,-3.10
2022-12-12T09:57:32.868Z,-3.15
2022-12-12T09:58:32.856Z,-2.98
2022-12-12T09:59:32.849Z,-2.86
2022-12-12T10:00:33.193Z,-2.87
2022-12-12T10:01:32.844Z,-2.80
2022-12-12T10:02:32.975Z,-2.72
2022-12-12T10:03:32.833Z,-2.66
2022-12-12T10:04:32.800Z,-2.68
2022-12-12T10:05:32.835Z,-2.68
2022-12-12T10:06:37.597Z,-2.68
2022-12-12T10:07:33.996Z,-2.90
2022-12-12T10:08:32.828Z,-2.77
2022-12-12T10:09:32.782Z,-2.69
2022-12-12T10:10:32.742Z,-2.69
2022-12-12T10:11:32.741Z,-2.64
2022-12-12T10:12:32.725Z,-2.68
2022-12-12T10:13:32.749Z,-2.71
2022-12-12T10:14:32.701Z,-2.64
2022-12-12T10:15:32.749Z,-2.56
2022-12-12T10:16:32.755Z,-2.50
2022-12-12T10:17:32.679Z,-2.46
2022-12-12T10:18:32.664Z,-2.33
2022-12-12T10:19:32.765Z,-2.50
2022-12-12T10:20:32.690Z,-2.55
2022-12-12T10:21:32.686Z,-2.51
2022-12-12T10:22:32.626Z,-2.38
2022-12-12T10:23:32.664Z,-2.41
2022-12-12T10:24:32.609Z,-2.38
2022-12-12T10:25:32.716Z,-2.40
2022-12-12T10:26:32.569Z,-2.43
2022-12-12T10:27:32.599Z,-2.37
2022-12-12T10:28:32.568Z,-2.40
2022-12-12T10:29:35.503Z,-2.53
2022-12-12T10:30:33.561Z,-2.64
2022-12-12T10:31:32.561Z,-2.47
2022-12-12T10:32:32.552Z,-2.65
2022-12-12T10:33:32.532Z,-2.65
2022-12-12T10:34:32.490Z,-2.58
2022-12-12T10:35:33.119Z,-2.51
2022-12-12T10:36:32.490Z,-2.55
2022-12-12T10:37:32.488Z,-2.66
2022-12-12T10:38:32.458Z,-2.50
2022-12-12T10:39:32.443Z,-2.46
2022-12-12T10:40:32.427Z,-2.46
2022-12-12T10:41:32.458Z,-2.44
2022-12-12T10:42:32.444Z,-2.38
2022-12-12T10:43:32.430Z,-2.41
2022-12-12T10:44:32.375Z,-2.50
2022-12-12T10:45:32.401Z,-2.51
2022-12-12T10:46:32.482Z,-2.50
2022-12-12T10:47:32.381Z,-2.41
2022-12-12T10:48:32.325Z,-2.44
2022-12-12T10:49:32.367Z,-2.37
2022-12-12T10:50:32.411Z,-2.40
2022-12-12T10:51:32.319Z,-2.37
2022-12-12T10:52:32.299Z,-2.53
2022-12-12T10:53:32.281Z,-2.46
2022-12-12T10:54:32.274Z,-2.38
2022-12-12T10:55:32.331Z,-2.58
2022-12-12T10:56:32.273Z,-2.68
2022-12-12T10:57:32.254Z,-2.68
2022-12-12T10:58:32.274Z,-2.62
2022-12-12T10:59:32.232Z,-2.62
2022-12-12T11:00:32.262Z,-2.65
2022-12-12T11:02:07.894Z,-2.53
2022-12-12T11:02:33.330Z,-2.58
2022-12-12T11:03:32.199Z,-2.56
2022-12-12T11:04:32.186Z,-2.55
2022-12-12T11:05:32.182Z,-2.51
2022-12-12T11:06:32.177Z,-2.58
2022-12-12T11:07:32.126Z,-2.77
2022-12-12T11:08:32.283Z,-2.79
2022-12-12T11:09:32.130Z,-2.76
2022-12-12T11:10:34.274Z,-2.87
2022-12-12T11:11:32.155Z,-2.87
2022-12-12T11:12:32.113Z,-2.71
2022-12-12T11:13:32.089Z,-2.59
2022-12-12T11:14:32.150Z,-2.50
2022-12-12T11:15:32.107Z,-2.48
2022-12-12T11:16:32.136Z,-2.48
2022-12-12T11:17:32.075Z,-2.56
2022-12-12T11:18:32.028Z,-2.50
2022-12-12T11:19:32.032Z,-2.55
2022-12-12T11:20:32.138Z,-2.62
2022-12-12T11:21:32.026Z,-2.43
2022-12-12T11:22:31.995Z,-2.44
2022-12-12T11:23:31.975Z,-2.48
2022-12-12T11:24:32.041Z,-2.48
2022-12-12T11:25:31.969Z,-2.53
2022-12-12T11:26:31.979Z,-2.47
2022-12-12T11:27:31.929Z,-2.38
2022-12-12T11:28:31.947Z,-2.35
2022-12-12T11:29:31.910Z,-2.29
2022-12-12T11:30:31.952Z,-2.19
2022-12-12T11:31:31.986Z,-2.10
2022-12-12T11:32:31.924Z,-2.10
2022-12-12T11:33:31.869Z,-2.13
2022-12-12T11:34:33.927Z,-2.22
2022-12-12T11:35:31.938Z,-2.13
2022-12-12T11:36:31.831Z,-2.18
2022-12-12T11:37:31.830Z,-2.16
2022-12-12T11:38:31.856Z,-2.24
2022-12-12T11:39:31.810Z,-2.21
2022-12-12T11:40:31.822Z,-2.37
2022-12-12T11:41:31.864Z,-2.32
2022-12-12T11:42:31.777Z,-2.40
2022-12-12T11:43:31.796Z,-2.43
2022-12-12T11:44:31.779Z,-2.35
2022-12-12T11:45:31.841Z,-2.41
2022-12-12T11:46:31.746Z,-2.43
2022-12-12T11:47:31.858Z,-2.47
2022-12-12T11:48:31.826Z,-2.51
2022-12-12T11:49:31.715Z,-2.50
2022-12-12T11:50:31.730Z,-2.68
2022-12-12T11:51:31.692Z,-2.64
2022-12-12T11:52:31.705Z,-2.71
2022-12-12T11:53:31.695Z,-2.61
2022-12-12T11:54:31.701Z,-2.71
2022-12-12T11:55:31.665Z,-2.66
2022-12-12T11:56:31.679Z,-2.62
2022-12-12T11:57:31.628Z,-2.50
2022-12-12T11:58:31.660Z,-2.61
2022-12-12T11:59:31.614Z,-2.61
2022-12-12T12:00:31.671Z,-2.51
2022-12-12T12:01:31.595Z,-2.47
2022-12-12T12:02:31.584Z,-2.48
2022-12-12T12:03:31.844Z,-2.41
2022-12-12T12:04:31.620Z,-2.35
2022-12-12T12:05:31.592Z,-2.38
2022-12-12T12:06:31.554Z,-2.37
2022-12-12T12:07:31.611Z,-2.38
2022-12-12T12:08:31.604Z,-2.38
2022-12-12T12:09:31.514Z,-2.35
2022-12-12T12:10:31.542Z,-2.41
2022-12-12T12:11:31.484Z,-2.43
2022-12-12T12:12:31.485Z,-2.38
2022-12-12T12:13:31.460Z,-2.33
2022-12-12T12:14:31.465Z,-2.37
2022-12-12T12:15:31.444Z,-2.33
2022-12-12T12:16:31.487Z,-2.33
2022-12-12T12:17:31.482Z,-2.35
2022-12-12T12:18:31.542Z,-2.29
2022-12-12T12:19:31.403Z,-2.32
2022-12-12T12:20:31.394Z,-2.48
2022-12-12T12:21:31.407Z,-2.50
2022-12-12T12:22:31.394Z,-2.44
2022-12-12T12:23:34.036Z,-2.38
2022-12-12T12:24:32.436Z,-2.38
2022-12-12T12:25:31.364Z,-2.43
2022-12-12T12:26:31.639Z,-2.41
2022-12-12T12:27:31.316Z,-2.35
2022-12-12T12:28:31.313Z,-2.41
2022-12-12T12:29:31.289Z,-2.44
2022-12-12T12:30:31.338Z,-2.53
2022-12-12T12:31:31.271Z,-2.41
2022-12-12T12:32:31.288Z,-2.43
2022-12-12T12:33:31.261Z,-2.35
2022-12-12T12:34:31.232Z,-2.37
2022-12-12T12:35:31.292Z,-2.32
2022-12-12T12:36:31.237Z,-2.18
2022-12-12T12:37:31.245Z,-2.35
2022-12-12T12:38:31.231Z,-2.32
2022-12-12T12:39:31.239Z,-2.32
2022-12-12T12:40:31.224Z,-2.35
2022-12-12T12:41:31.258Z,-2.38
2022-12-12T12:42:31.154Z,-2.47
2022-12-12T12:43:31.160Z,-2.51
2022-12-12T12:44:31.139Z,-2.74
2022-12-12T12:45:31.172Z,-2.68
2022-12-12T12:46:31.201Z,-2.59
2022-12-12T12:47:31.099Z,-2.62
2022-12-12T12:48:31.098Z,-2.55
2022-12-12T12:49:31.170Z,-2.50
2022-12-12T12:50:31.093Z,-2.48
2022-12-12T12:51:31.117Z,-2.48
2022-12-12T12:52:31.042Z,-2.65